createdAt,value
2022-11-16T00:02:14.787Z,12.52
2022-11-16T00:04:42.026Z,12.95
2022-11-16T00:07:09.133Z,12.36
2022-11-16T00:09:36.039Z,12.66
2022-11-16T00:12:06.142Z,12.97
2022-11-16T00:14:35.001Z,12.86
2022-11-16T00:17:02.258Z,13.31
2022-11-16T00:19:29.613Z,12.65
2022-11-16T00:21:56.238Z,12.72
2022-11-16T00:24:23.791Z,12.10
2022-11-16T00:26:51.170Z,13.17
2022-11-16T00:29:22.081Z,12.42
2022-11-16T00:31:49.828Z,13.24
2022-11-16T00:34:17.310Z,13.36
2022-11-16T00:36:44.604Z,13.60
2022-11-16T00:39:12.877Z,12.23
2022-11-16T00:41:40.064Z,13.11
2022-11-16T00:44:07.002Z,12.88
2022-11-16T00:46:33.626Z,12.08
2022-11-16T00:49:01.625Z,12.17
2022-11-16T00:51:31.729Z,12.54
2022-11-16T00:53:58.531Z,12.36
2022-11-16T00:56:25.330Z,12.83
2022-11-16T00:58:52.015Z,12.40
2022-11-16T01:01:19.048Z,12.23
2022-11-16T01:03:46.050Z,11.92
2022-11-16T01:06:14.383Z,12.16
2022-11-16T01:08:42.336Z,12.26
2022-11-16T01:11:28.618Z,11.85
2022-11-16T01:13:55.652Z,12.20
2022-11-16T01:16:23.368Z,12.96
2022-11-16T01:18:54.949Z,11.99
2022-11-16T01:21:23.011Z,13.00
2022-11-16T01:23:50.412Z,12.28
2022-11-16T01:26:17.391Z,13.32
2022-11-16T01:28:44.473Z,12.56
2022-11-16T01:31:12.557Z,12.81
2022-11-16T01:33:40.648Z,12.56
2022-11-16T01:36:14.816Z,12.16
2022-11-16T01:38:43.769Z,11.64
2022-11-16T01:41:16.401Z,11.51
2022-11-16T01:44:05.738Z,12.15
2022-11-16T01:46:38.607Z,12.29
2022-11-16T01:49:20.421Z,12.12
2022-11-16T01:51:53.441Z,12.78
2022-11-16T01:54:21.048Z,12.47
2022-11-16T01:57:02.955Z,12.35
2022-11-16T01:59:39.155Z,12.68
2022-11-16T02:02:09.481Z,11.61
2022-11-16T02:04:36.273Z,11.71
2022-11-16T02:08:18.039Z,11.73
2022-11-16T02:11:24.807Z,12.46
2022-11-16T02:14:27.127Z,12.57
2022-11-16T02:17:09.724Z,12.39
2022-11-16T02:20:03.378Z,12.26
2022-11-16T02:22:44.322Z,12.86
2022-11-16T02:25:23.218Z,11.92
2022-11-16T02:28:00.440Z,12.14
2022-11-16T02:30:27.111Z,11.74
2022-11-16T02:33:18.370Z,11.58
2022-11-16T02:35:50.404Z,12.53
2022-11-16T02:38:27.902Z,12.11
2022-11-16T02:41:01.702Z,12.34
2022-11-16T02:43:57.451Z,12.15
2022-11-16T02:46:36.073Z,11.90
2022-11-16T02:49:11.383Z,12.12
2022-11-16T02:51:40.798Z,12.57
2022-11-16T02:54:08.588Z,11.60
2022-11-16T02:57:03.638Z,12.75
2022-11-16T02:59:42.750Z,11.80
2022-11-16T03:02:37.302Z,12.43
2022-11-16T03:05:17.144Z,12.48
2022-11-16T03:08:29.441Z,12.50
2022-11-16T03:11:21.649Z,12.51
2022-11-16T03:13:49.879Z,11.64
2022-11-16T03:16:25.267Z,12.26
2022-11-16T03:18:55.548Z,12.41
2022-11-16T03:21:44.392Z,12.64
2022-11-16T03:24:13.470Z,12.21
2022-11-16T03:27:05.498Z,12.38
2022-11-16T03:29:39.024Z,12.12
2022-11-16T03:32:19.097Z,12.09
2022-11-16T03:34:56.305Z,12.11
2022-11-16T03:37:25.356Z,12.01
2022-11-16T03:39:54.681Z,11.80
2022-11-16T03:42:24.727Z,11.68
2022-11-16T03:44:52.448Z,11.53
2022-11-16T03:47:19.076Z,12.33
2022-11-16T03:49:46.656Z,11.64
2022-11-16T03:52:17.331Z,11.51
2022-11-16T03:54:44.351Z,10.99
2022-11-16T03:57:18.629Z,11.97
2022-11-16T03:59:51.162Z,11.15
2022-11-16T04:02:17.811Z,11.56
2022-11-16T04:05:03.408Z,11.88
2022-11-16T04:07:48.675Z,12.22
2022-11-16T04:10:34.127Z,11.32
2022-11-16T04:13:40.490Z,10.35
2022-11-16T04:16:27.816Z,10.35
2022-11-16T04:19:13.100Z,10.28
2022-11-16T04:22:03.555Z,11.89
2022-11-16T04:24:38.197Z,12.02
2022-11-16T04:27:27.804Z,11.56
2022-11-16T04:29:56.631Z,11.42
2022-11-16T04:32:42.597Z,12.19
2022-11-16T04:35:27.743Z,12.34
2022-11-16T04:37:58.503Z,11.19
2022-11-16T04:40:32.073Z,11.13
2022-11-16T04:43:01.405Z,11.77
2022-11-16T04:45:51.168Z,11.82
2022-11-16T04:48:20.975Z,11.73
2022-11-16T04:50:51.037Z,11.33
2022-11-16T04:53:18.111Z,10.54
2022-11-16T04:55:51.068Z,11.60
2022-11-16T04:58:19.988Z,10.91
2022-11-16T05:00:47.856Z,12.10
2022-11-16T05:03:14.592Z,10.27
2022-11-16T05:05:42.038Z,11.07
2022-11-16T05:08:09.295Z,12.30
2022-11-16T05:10:37.366Z,11.55
2022-11-16T05:13:04.124Z,10.90
2022-11-16T05:15:30.831Z,11.19
2022-11-16T05:17:59.096Z,10.68
2022-11-16T05:20:44.855Z,11.92
2022-11-16T05:23:32.287Z,11.64
2022-11-16T05:26:04.434Z,10.92
2022-11-16T05:28:31.202Z,10.89
2022-11-16T05:30:58.089Z,11.66
2022-11-16T05:33:26.975Z,9.73
2022-11-16T05:35:53.752Z,11.14
2022-11-16T05:38:21.311Z,11.06
2022-11-16T05:40:51.834Z,10.34
2022-11-16T05:43:18.446Z,11.13
2022-11-16T05:46:05.293Z,10.64
2022-11-16T05:48:33.101Z,10.85
2022-11-16T05:51:00.507Z,10.26
2022-11-16T05:53:30.534Z,11.24
2022-11-16T05:55:58.597Z,10.59
2022-11-16T05:58:25.212Z,11.32
2022-11-16T06:00:52.274Z,11.10
2022-11-16T06:03:19.836Z,10.73
2022-11-16T06:05:46.734Z,11.01
2022-11-16T06:08:16.193Z,10.59
2022-11-16T06:10:42.822Z,9.79
2022-11-16T06:13:09.543Z,9.94
2022-11-16T06:15:39.630Z,11.21
2022-11-16T06:18:08.700Z,10.39
2022-11-16T06:20:38.388Z,10.13
2022-11-16T06:23:06.042Z,10.92
2022-11-16T06:25:33.444Z,10.71
2022-11-16T06:28:05.234Z,11.55
2022-11-16T06:30:34.739Z,10.14
2022-11-16T06:33:02.786Z,9.67
2022-11-16T06:35:29.536Z,9.96
2022-11-16T06:37:58.207Z,10.11
2022-11-16T06:40:25.778Z,10.46
2022-11-16T06:42:52.631Z,10.80
2022-11-16T06:45:19.499Z,10.82
2022-11-16T06:47:50.597Z,10.71
2022-11-16T06:50:19.294Z,11.16
2022-11-16T06:52:47.592Z,10.33
2022-11-16T06:55:16.324Z,9.94
2022-11-16T06:57:43.966Z,11.07
2022-11-16T07:00:11.165Z,10.51
2022-11-16T07:02:38.778Z,11.01
2022-11-16T07:05:08.106Z,11.16
2022-11-16T07:07:34.995Z,10.41
2022-11-16T07:10:02.469Z,10.77
2022-11-16T07:12:30.714Z,10.75
2022-11-16T07:15:01.323Z,10.71
2022-11-16T07:17:30.573Z,11.00
2022-11-16T07:19:57.870Z,10.40
2022-11-16T07:22:24.557Z,10.19
2022-11-16T07:24:51.960Z,10.65
2022-11-16T07:27:20.313Z,10.40
2022-11-16T07:29:49.979Z,11.03
2022-11-16T07:32:35.780Z,11.18
2022-11-16T07:35:13.801Z,10.96
2022-11-16T07:37:40.423Z,10.75
2022-11-16T07:40:08.752Z,11.23
2022-11-16T07:42:36.769Z,10.53
2022-11-16T07:45:22.007Z,10.00
2022-11-16T07:47:53.743Z,9.86
2022-11-16T07:50:43.496Z,9.67
2022-11-16T07:53:10.708Z,10.92
2022-11-16T07:55:39.074Z,11.04
2022-11-16T07:58:06.103Z,10.14
2022-11-16T08:00:32.785Z,10.45
2022-11-16T08:03:08.386Z,10.74
2022-11-16T08:05:36.120Z,9.97
2022-11-16T08:08:02.885Z,10.69
2022-11-16T08:10:31.610Z,10.77
2022-11-16T08:12:59.439Z,10.86
2022-11-16T08:15:26.634Z,10.39
2022-11-16T08:17:53.311Z,10.81
2022-11-16T08:20:20.186Z,10.79
2022-11-16T08:22:49.771Z,10.53
2022-11-16T08:25:16.507Z,10.56
2022-11-16T08:27:43.942Z,10.74
2022-11-16T08:30:11.845Z,10.40
2022-11-16T08:32:39.340Z,10.28
2022-11-16T08:35:06.649Z,10.67
2022-11-16T08:37:34.021Z,10.74
2022-11-16T08:40:00.775Z,10.95
2022-11-16T08:42:28.035Z,9.75
2022-11-16T08:44:54.693Z,10.38
2022-11-16T08:47:21.404Z,10.65
2022-11-16T08:49:53.641Z,10.99
2022-11-16T08:52:21.857Z,10.52
2022-11-16T08:54:50.419Z,10.19
2022-11-16T08:57:17.410Z,10.45
2022-11-16T08:59:46.889Z,10.70
2022-11-16T09:02:14.166Z,10.81
2022-11-16T09:04:40.869Z,10.60
2022-11-16T09:07:07.505Z,10.73
2022-11-16T09:09:34.313Z,10.90
2022-11-16T09:12:00.990Z,11.04
2022-11-16T09:14:29.010Z,11.09
2022-11-16T09:16:55.671Z,10.54
2022-11-16T09:19:22.558Z,11.17
2022-11-16T09:21:50.416Z,10.88
2022-11-16T09:24:17.281Z,10.06
2022-11-16T09:26:44.009Z,11.25
2022-11-16T09:29:14.937Z,11.50
2022-11-16T09:31:42.074Z,11.47
2022-11-16T09:34:08.728Z,11.15
2022-11-16T09:36:35.432Z,10.87
2022-11-16T09:39:29.523Z,10.96
2022-11-16T09:42:02.091Z,9.96
2022-11-16T09:44:58.743Z,10.23
2022-11-16T09:47:49.182Z,10.45
2022-11-16T09:50:22.709Z,10.27
2022-11-16T09:52:55.511Z,10.40
2022-11-16T09:55:32.134Z,11.02
2022-11-16T09:58:02.103Z,10.02
2022-11-16T10:00:30.625Z,10.06
2022-11-16T10:03:11.007Z,10.78
2022-11-16T10:05:48.601Z,10.63
2022-11-16T10:08:23.163Z,10.75
2022-11-16T10:11:05.434Z,10.81
2022-11-16T10:13:57.054Z,10.81
2022-11-16T10:16:49.073Z,10.95
2022-11-16T10:19:30.770Z,10.72
2022-11-16T10:22:18.201Z,11.02
2022-11-16T10:24:57.454Z,10.37
2022-11-16T10:27:38.203Z,11.09
2022-11-16T10:30:19.984Z,11.46
2022-11-16T10:33:02.832Z,11.02
2022-11-16T10:35:37.258Z,10.70
2022-11-16T10:38:14.550Z,11.25
2022-11-16T10:40:41.522Z,11.07
2022-11-16T10:43:15.071Z,10.65
2022-11-16T10:46:09.214Z,10.86
2022-11-16T10:49:27.190Z,10.64
2022-11-16T10:51:53.981Z,11.06
2022-11-16T10:54:20.590Z,10.40
2022-11-16T10:56:49.670Z,10.02
2022-11-16T10:59:19.176Z,10.76
2022-11-16T11:01:51.055Z,10.33
2022-11-16T11:04:26.270Z,10.52
2022-11-16T11:07:01.678Z,11.05
2022-11-16T11:09:34.311Z,11.01
2022-11-16T11:12:34.246Z,11.41
2022-11-16T11:15:25.876Z,10.84
2022-11-16T11:18:11.697Z,10.49
2022-11-16T11:20:44.864Z,10.84
2022-11-16T11:23:15.865Z,10.92
2022-11-16T11:25:49.745Z,11.17
2022-11-16T11:28:19.454Z,11.41
2022-11-16T11:31:04.114Z,10.70
2022-11-16T11:33:48.548Z,11.34
2022-11-16T11:36:27.084Z,11.63
2022-11-16T11:39:07.838Z,11.50
2022-11-16T11:41:38.927Z,11.61
2022-11-16T11:44:31.764Z,11.39
2022-11-16T11:50:11.078Z,11.55
2022-11-16T11:52:42.582Z,11.50
2022-11-16T11:55:17.768Z,11.55
2022-11-16T11:57:47.791Z,11.94
2022-11-16T12:00:15.619Z,12.28
2022-11-16T12:03:06.377Z,11.57
2022-11-16T12:06:06.374Z,11.06
2022-11-16T12:08:51.280Z,11.42
2022-11-16T12:11:36.316Z,11.23
2022-11-16T12:14:17.817Z,11.33
2022-11-16T12:16:53.176Z,11.47
2022-11-16T12:19:19.726Z,11.44
2022-11-16T12:21:55.258Z,10.99
2022-11-16T12:24:28.098Z,11.30
2022-11-16T12:27:00.795Z,11.31
2022-11-16T12:29:27.431Z,11.81
2022-11-16T12:32:09.176Z,11.46
2022-11-16T12:34:54.779Z,11.17
2022-11-16T12:37:37.316Z,11.22
2022-11-16T12:40:10.017Z,11.39
2022-11-16T12:42:45.735Z,11.50
2022-11-16T12:45:32.546Z,10.78
2022-11-16T12:48:18.147Z,10.90
2022-11-16T12:51:32.192Z,10.79
2022-11-16T12:54:19.968Z,11.63
2022-11-16T12:56:49.057Z,10.84
2022-11-16T13:00:14.307Z,10.77
2022-11-16T13:03:04.183Z,10.71
2022-11-16T13:05:42.712Z,11.18
2022-11-16T13:08:21.364Z,10.88
2022-11-16T13:10:50.555Z,11.90
2022-11-16T13:13:51.357Z,11.52
2022-11-16T13:16:17.357Z,10.97
2022-11-16T13:18:44.766Z,10.97
2022-11-16T13:21:37.642Z,11.36
2022-11-16T13:24:16.623Z,11.48
2022-11-16T13:26:55.898Z,11.59
2022-11-16T13:29:30.301Z,11.45
2022-11-16T13:32:00.440Z,11.37
2022-11-16T13:34:37.576Z,11.04
2022-11-16T13:37:39.721Z,11.07
2022-11-16T13:40:06.343Z,11.32
2022-11-16T13:42:57.422Z,11.23
2022-11-16T13:45:26.210Z,11.16
2022-11-16T13:47:55.582Z,11.74
2022-11-16T13:50:37.216Z,11.23
2022-11-16T13:56:05.195Z,10.87
2022-11-16T13:58:33.876Z,11.02
2022-11-16T14:01:10.688Z,10.65
2022-11-16T14:03:42.689Z,11.31
2022-11-16T14:06:24.626Z,11.53
2022-11-16T14:08:55.326Z,11.72
2022-11-16T14:11:38.165Z,11.56
2022-11-16T14:14:09.627Z,11.75
2022-11-16T14:16:50.735Z,11.00
2022-11-16T14:19:49.097Z,11.15
2022-11-16T14:22:41.766Z,11.26
2022-11-16T14:25:37.563Z,11.17
2022-11-16T14:28:38.785Z,11.33
2022-11-16T14:31:27.605Z,10.85
2022-11-16T14:33:59.938Z,10.49
2022-11-16T14:36:41.665Z,10.85
2022-11-16T14:39:37.437Z,11.51
2022-11-16T14:42:17.706Z,10.69
2022-11-16T14:44:44.770Z,10.79
2022-11-16T14:47:34.059Z,11.18
2022-11-16T14:50:00.727Z,10.00
2022-11-16T14:52:34.450Z,10.04
2022-11-16T14:55:07.119Z,9.89
2022-11-16T14:57:34.157Z,11.14
2022-11-16T15:00:18.926Z,11.33
2022-11-16T15:02:55.290Z,10.53
2022-11-16T15:05:29.592Z,11.01
2022-11-16T15:07:59.404Z,11.07
2022-11-16T15:10:28.582Z,11.36
2022-11-16T15:12:56.958Z,11.28
2022-11-16T15:15:31.357Z,10.52
2022-11-16T15:18:03.935Z,11.54
2022-11-16T15:20:36.725Z,11.12
2022-11-16T15:23:12.277Z,11.42
2022-11-16T15:25:56.636Z,11.26
2022-11-16T15:28:30.231Z,11.38
2022-11-16T15:31:02.388Z,11.11
2022-11-16T15:33:36.368Z,11.66
2022-11-16T15:36:21.824Z,11.22
2022-11-16T15:38:50.446Z,11.17
2022-11-16T15:41:18.465Z,10.89
2022-11-16T15:44:12.525Z,10.92
2022-11-16T15:46:38.529Z,11.35
2022-11-16T15:49:30.233Z,11.50
2022-11-16T15:52:01.003Z,10.68
2022-11-16T15:54:28.876Z,10.57
2022-11-16T15:56:58.532Z,10.72
2022-11-16T15:59:29.906Z,9.87
2022-11-16T16:01:56.809Z,10.83
2022-11-16T16:04:25.597Z,10.10
2022-11-16T16:06:57.221Z,11.40
2022-11-16T16:09:36.875Z,10.47
2022-11-16T16:12:15.779Z,10.65
2022-11-16T16:14:42.674Z,9.96
2022-11-16T16:17:11.627Z,11.20
2022-11-16T16:19:40.910Z,10.72
2022-11-16T16:22:15.433Z,10.46
2022-11-16T16:24:45.377Z,10.74
2022-11-16T16:27:17.908Z,10.95
2022-11-16T16:29:46.753Z,11.20
2022-11-16T16:32:25.223Z,11.07
2022-11-16T16:34:53.915Z,10.80
2022-11-16T16:37:20.688Z,11.07
2022-11-16T16:39:47.315Z,10.17
2022-11-16T16:42:16.331Z,10.60
2022-11-16T16:44:44.254Z,11.23
2022-11-16T16:47:11.184Z,11.45
2022-11-16T16:49:38.090Z,10.84
2022-11-16T16:52:05.957Z,11.05
2022-11-16T16:54:32.957Z,11.14
2022-11-16T16:57:01.413Z,11.05
2022-11-16T16:59:29.934Z,10.22
2022-11-16T17:01:57.829Z,10.21
2022-11-16T17:04:24.966Z,11.09
2022-11-16T17:06:52.922Z,11.15
2022-11-16T17:09:20.064Z,11.09
2022-11-16T17:11:47.569Z,12.40
2022-11-16T17:14:14.307Z,9.75
2022-11-16T17:16:41.048Z,9.53
2022-11-16T17:19:07.683Z,9.82
2022-11-16T17:21:34.252Z,10.22
2022-11-16T17:24:01.036Z,9.87
2022-11-16T17:26:29.520Z,9.70
2022-11-16T17:28:57.652Z,10.32
2022-11-16T17:31:25.843Z,10.52
2022-11-16T17:33:52.779Z,10.35
2022-11-16T17:36:19.892Z,9.47
2022-11-16T17:38:46.783Z,9.30
2022-11-16T17:41:18.506Z,10.33
2022-11-16T17:43:46.408Z,10.22
2022-11-16T17:46:15.861Z,9.65
2022-11-16T17:48:44.638Z,9.22
2022-11-16T17:51:13.422Z,9.63
2022-11-16T17:53:40.879Z,9.59
2022-11-16T17:56:07.961Z,9.84
2022-11-16T17:58:34.784Z,9.23
2022-11-16T18:01:01.518Z,10.12
2022-11-16T18:03:31.228Z,9.51
2022-11-16T18:06:06.075Z,9.18
2022-11-16T18:08:33.471Z,9.58
2022-11-16T18:11:11.164Z,9.55
2022-11-16T18:13:38.181Z,10.22
2022-11-16T18:16:17.405Z,9.96
2022-11-16T18:18:46.007Z,10.37
2022-11-16T18:21:20.032Z,10.59
2022-11-16T18:23:47.520Z,10.61
2022-11-16T18:26:17.789Z,10.57
2022-11-16T18:28:45.334Z,9.77
2022-11-16T18:31:15.653Z,9.52
2022-11-16T18:33:42.888Z,9.80
2022-11-16T18:36:10.803Z,9.90
2022-11-16T18:38:37.709Z,9.27
2022-11-16T18:41:13.456Z,10.23
2022-11-16T18:43:40.463Z,9.67
2022-11-16T18:46:07.841Z,10.69
2022-11-16T18:48:34.514Z,10.31
2022-11-16T18:51:03.214Z,9.79
2022-11-16T18:53:31.237Z,10.43
2022-11-16T18:55:58.510Z,9.84
2022-11-16T19:01:16.101Z,10.45
2022-11-16T19:03:43.235Z,9.87
2022-11-16T19:06:10.888Z,10.60
2022-11-16T19:08:39.283Z,10.11
2022-11-16T19:11:11.955Z,9.60
2022-11-16T19:13:43.099Z,9.70
2022-11-16T19:16:11.983Z,9.07
2022-11-16T19:18:38.743Z,9.64
2022-11-16T19:21:07.176Z,9.78
2022-11-16T19:23:42.816Z,9.72
2022-11-16T19:26:12.176Z,9.17
2022-11-16T19:28:43.333Z,9.97
2022-11-16T19:31:12.524Z,9.88
2022-11-16T19:33:39.913Z,9.78
2022-11-16T19:36:12.187Z,9.45
2022-11-16T19:38:39.395Z,9.25
2022-11-16T19:41:07.771Z,9.86
2022-11-16T19:43:34.745Z,9.40
2022-11-16T19:46:06.257Z,10.19
2022-11-16T19:48:33.276Z,9.79
2022-11-16T19:51:06.420Z,9.72
2022-11-16T19:53:33.775Z,9.20
2022-11-16T19:56:00.809Z,9.05
2022-11-16T19:58:27.938Z,9.03
2022-11-16T20:01:07.467Z,10.10
2022-11-16T20:03:34.903Z,9.21
2022-11-16T20:06:09.027Z,9.70
2022-11-16T20:08:36.995Z,8.86
2022-11-16T20:11:15.555Z,9.47
2022-11-16T20:13:42.659Z,9.54
2022-11-16T20:16:11.379Z,10.05
2022-11-16T20:18:39.912Z,8.98
2022-11-16T20:21:07.651Z,8.70
2022-11-16T20:23:35.639Z,9.39
2022-11-16T20:26:10.358Z,9.65
2022-11-16T20:28:39.028Z,9.44
2022-11-16T20:31:11.742Z,9.58
2022-11-16T20:33:38.675Z,9.28
2022-11-16T20:36:08.100Z,9.80
2022-11-16T20:38:36.519Z,10.09
2022-11-16T20:41:13.895Z,10.06
2022-11-16T20:43:42.182Z,8.96
2022-11-16T20:46:10.610Z,9.37
2022-11-16T20:48:38.170Z,8.94
2022-11-16T20:51:05.452Z,9.65
2022-11-16T20:53:33.261Z,9.13
2022-11-16T20:56:03.762Z,9.77
2022-11-16T20:58:31.321Z,9.99
2022-11-16T21:01:05.742Z,9.67
2022-11-16T21:03:33.155Z,9.30
2022-11-16T21:06:00.141Z,9.28
2022-11-16T21:08:27.341Z,9.90
2022-11-16T21:10:54.230Z,10.37
2022-11-16T21:13:40.179Z,10.20
2022-11-16T21:16:11.460Z,9.63
2022-11-16T21:18:39.531Z,9.37
2022-11-16T21:21:13.181Z,10.19
2022-11-16T21:23:43.135Z,9.92
2022-11-16T21:26:15.130Z,9.88
2022-11-16T21:28:44.730Z,9.13
2022-11-16T21:31:17.897Z,9.70
2022-11-16T21:33:45.310Z,9.20
2022-11-16T21:36:14.748Z,9.76
2022-11-16T21:38:41.904Z,8.98
2022-11-16T21:41:10.233Z,9.65
2022-11-16T21:43:37.777Z,9.88
2022-11-16T21:46:10.827Z,9.24
2022-11-16T21:48:37.962Z,10.02
2022-11-16T21:51:07.740Z,10.14
2022-11-16T21:53:35.384Z,9.69
2022-11-16T21:56:03.453Z,9.66
2022-11-16T21:58:30.157Z,9.42
2022-11-16T22:00:58.595Z,9.83
2022-11-16T22:03:27.330Z,9.47
2022-11-16T22:06:17.677Z,9.09
2022-11-16T22:08:45.189Z,9.71
2022-11-16T22:11:12.285Z,9.46
2022-11-16T22:13:39.770Z,9.19
2022-11-16T22:16:08.474Z,9.56
2022-11-16T22:18:35.458Z,9.97
2022-11-16T22:21:02.986Z,9.68
2022-11-16T22:23:30.558Z,9.15
2022-11-16T22:26:18.584Z,9.96
2022-11-16T22:28:45.194Z,10.10
2022-11-16T22:31:13.549Z,10.27
2022-11-16T22:33:40.213Z,9.08
2022-11-16T22:36:10.227Z,9.29
2022-11-16T22:38:37.486Z,8.87
2022-11-16T22:41:04.315Z,9.54
2022-11-16T22:43:32.300Z,9.66
2022-11-16T22:46:04.974Z,10.09
2022-11-16T22:48:37.316Z,9.59
2022-11-16T22:51:22.800Z,8.97
2022-11-16T22:54:00.485Z,8.89
2022-11-16T22:56:28.658Z,9.39
2022-11-16T22:58:55.779Z,9.64
2022-11-16T23:01:23.198Z,8.62
2022-11-16T23:03:50.128Z,9.11
2022-11-16T23:06:17.576Z,9.20
2022-11-16T23:08:44.465Z,9.56
2022-11-16T23:11:32.226Z,9.09
2022-11-16T23:14:18.628Z,9.41
2022-11-16T23:16:45.791Z,9.34
2022-11-16T23:19:33.027Z,9.01
2022-11-16T23:22:18.736Z,8.85
2022-11-16T23:25:04.437Z,8.93
2022-11-16T23:27:52.298Z,9.70
2022-11-16T23:30:18.968Z,9.92
2022-11-16T23:32:45.681Z,9.57
2022-11-16T23:35:13.138Z,9.65
2022-11-16T23:38:15.349Z,9.14
2022-11-16T23:40:42.022Z,9.57
2022-11-16T23:43:29.087Z,9.20
2022-11-16T23:45:55.833Z,9.17
2022-11-16T23:48:22.521Z,8.68
2022-11-16T23:50:49.126Z,9.37
2022-11-16T23:53:15.711Z,9.77
2022-11-16T23:55:42.338Z,9.16
2022-11-16T23:58:14.546Z,9.22
